East Brimfield, Massachusetts
Current Conditions -  °F | °C
As of 6:08 AM on Thursday 18 Dec 2014 (Local Time) from KORH Reporting Station
Light Snow Light Snow  
Wind Chill: 21°   Ceiling: 2400
Heat Index: 32°   Visibility: 1.7mi
Dew Point: 30°   Wind: 16mph
Humidity: 92%   Direction: 280°W
Pressure: 29.72"   Gusts: 24mph
Location:  42.1143°N, 72.1854°W
Report Text: KORH 181108Z AUTO 28014G21KT 1 3/4SM -SN BR FEW006 OVC024 00/M01 A2972 RMK AO2 P0000 T00001011
Loading
Personal Weather Stations






























Interactive Weather Map New forecast layout! Learn more

10-Day Weather Forecast

Advertisements
Track Severe Weather on mobile